TAF Text Data
IDs:
Format:
Raw Decoded Include METAR

Data at: 1956 UTC 20 Sep 2018

KLRU 201935Z AUTO 35009KT 10SM RA SCT038 BKN070 OVC095 17/17 A3000 RMK AO2 LTG DSNT NE P0007 T01700170

KLRU 201720Z 2018/2118 21008KT P6SM -SHRA SCT015 BKN040
  TEMPO 2018/2020 4SM SHRA BKN015
  FM202000 36010KT P6SM VCTS SCT020CB BKN050
  TEMPO 2020/2024 VRB20G30KT 1SM TSRA BKN020CB
  FM210200 27006KT P6SM SCT070 SCT150
  FM211200 01009KT P6SM SKC